Private Wetterstation Sandau
Wetterdaten: Montag, 18.03.2013
Datum Zeit Temp. A. Feuchte A. Luftdruck Regen Wind Richtung Richtung Taupunkt Windchill
18.03.2013 00:01 -0,1 C 68 % 1004,4 hPa 0,0 l/m 9,4 km/h (2 Bft) O 90 -5,3 C -3,3 C
18.03.2013 00:06 -0,1 C 68 % 1004,2 hPa 0,0 l/m 28,8 km/h (4 Bft) O 90 -5,3 C -6,5 C
18.03.2013 00:11 -0,1 C 67 % 1004,2 hPa 0,0 l/m 12,6 km/h (3 Bft) O-SO 112 -5,5 C -4,1 C
18.03.2013 00:16 -0,1 C 68 % 1003,9 hPa 0,0 l/m 18,0 km/h (3 Bft) O-SO 112 -5,3 C -5,1 C
18.03.2013 00:21 -0,1 C 68 % 1003,9 hPa 0,0 l/m 23,0 km/h (4 Bft) O-SO 112 -5,3 C -5,8 C
18.03.2013 00:26 -0,1 C 68 % 1003,9 hPa 0,0 l/m 16,2 km/h (3 Bft) O-SO 112 -5,3 C -4,8 C
18.03.2013 00:31 -0,1 C 68 % 1003,9 hPa 0,0 l/m 18,4 km/h (3 Bft) O-SO 112 -5,3 C -5,1 C
18.03.2013 00:36 -0,1 C 68 % 1004,0 hPa 0,0 l/m 7,2 km/h (2 Bft) O 90 -5,3 C -2,6 C
18.03.2013 00:41 -0,1 C 68 % 1004,0 hPa 0,0 l/m 21,2 km/h (4 Bft) O-SO 112 -5,3 C -5,5 C
18.03.2013 00:46 -0,1 C 68 % 1003,9 hPa 0,0 l/m 5,8 km/h (2 Bft) O-SO 112 -5,3 C -2,1 C
18.03.2013 00:51 -0,1 C 69 % 1004,0 hPa 0,0 l/m 8,6 km/h (2 Bft) SO 135 -5,1 C -3,0 C
18.03.2013 00:56 -0,1 C 69 % 1003,9 hPa 0,0 l/m 5,4 km/h (1 Bft) O-NO 67 -5,1 C -1,9 C
18.03.2013 01:01 -0,1 C 69 % 1003,8 hPa 0,0 l/m 11,9 km/h (2 Bft) S-SO 157 -5,1 C -3,9 C
18.03.2013 01:06 0,0 C 69 % 1003,8 hPa 0,0 l/m 5,0 km/h (1 Bft) S-SO 157 -5,0 C -1,6 C
18.03.2013 01:11 0,1 C 69 % 1004,0 hPa 0,0 l/m 16,9 km/h (3 Bft) S-SO 157 -4,9 C -4,6 C
18.03.2013 01:16 0,2 C 69 % 1004,0 hPa 0,0 l/m 23,4 km/h (4 Bft) S-SO 157 -4,8 C -5,5 C
18.03.2013 01:21 0,3 C 70 % 1003,8 hPa 0,0 l/m 14,0 km/h (3 Bft) O-SO 112 -4,5 C -3,9 C
18.03.2013 01:26 0,2 C 72 % 1003,8 hPa 0,0 l/m 7,2 km/h (2 Bft) SO 135 -4,2 C -2,2 C
18.03.2013 01:31 0,2 C 72 % 1003,8 hPa 0,0 l/m 25,2 km/h (4 Bft) S-SO 157 -4,2 C -5,7 C
18.03.2013 01:36 0,1 C 74 % 1003,6 hPa 0,0 l/m 12,2 km/h (2 Bft) O-SO 112 -4,0 C -3,7 C
18.03.2013 01:41 0,1 C 76 % 1003,7 hPa 0,0 l/m 10,4 km/h (2 Bft) S-SO 157 -3,6 C -3,3 C
18.03.2013 01:46 -0,1 C 77 % 1003,8 hPa 0,0 l/m 13,7 km/h (3 Bft) SO 135 -3,6 C -4,3 C
18.03.2013 01:51 -0,1 C 78 % 1003,8 hPa 0,0 l/m 29,5 km/h (5 Bft) SO 135 -3,5 C -6,6 C
18.03.2013 01:56 -0,2 C 79 % 1003,5 hPa 0,0 l/m 9,7 km/h (2 Bft) S-SO 157 -3,4 C -3,5 C
18.03.2013 02:01 -0,2 C 79 % 1003,3 hPa 0,0 l/m 15,1 km/h (3 Bft) S-SO 157 -3,4 C -4,7 C
18.03.2013 02:06 -0,4 C 80 % 1003,0 hPa 0,0 l/m 16,6 km/h (3 Bft) O-SO 112 -3,4 C -5,2 C
18.03.2013 02:11 -0,4 C 80 % 1003,0 hPa 0,0 l/m 16,6 km/h (3 Bft) O-NO 67 -3,4 C -5,2 C
18.03.2013 02:16 -0,5 C 80 % 1002,7 hPa 0,0 l/m 13,7 km/h (3 Bft) S-SO 157 -3,5 C -4,8 C
18.03.2013 02:21 -0,5 C 80 % 1002,8 hPa 0,0 l/m 25,6 km/h (4 Bft) SO 135 -3,5 C -6,6 C
18.03.2013 02:26 -0,6 C 79 % 1002,8 hPa 0,0 l/m 27,0 km/h (4 Bft) SO 135 -3,8 C -6,9 C
18.03.2013 02:31 -0,6 C 80 % 1003,0 hPa 0,0 l/m 17,3 km/h (3 Bft) S-SO 157 -3,6 C -5,6 C
18.03.2013 02:36 -0,6 C 79 % 1002,8 hPa 0,0 l/m 25,2 km/h (4 Bft) SO 135 -3,8 C -6,7 C
18.03.2013 02:41 -0,6 C 79 % 1002,9 hPa 0,0 l/m 20,5 km/h (4 Bft) SO 135 -3,8 C -6,1 C
18.03.2013 02:46 -0,6 C 79 % 1003,0 hPa 0,0 l/m 13,0 km/h (3 Bft) SO 135 -3,8 C -4,8 C
18.03.2013 02:51 -0,6 C 78 % 1002,9 hPa 0,0 l/m 10,1 km/h (2 Bft) S-SO 157 -3,9 C -4,1 C
18.03.2013 02:56 -0,5 C 78 % 1002,8 hPa 0,0 l/m 14,8 km/h (3 Bft) S-SO 157 -3,9 C -5,0 C
18.03.2013 03:01 -0,5 C 78 % 1002,8 hPa 0,0 l/m 8,3 km/h (2 Bft) O-NO 67 -3,9 C -3,4 C
18.03.2013 03:06 -0,4 C 77 % 1003,0 hPa 0,0 l/m 18,0 km/h (3 Bft) S-SO 157 -3,9 C -5,4 C
18.03.2013 03:11 -0,4 C 77 % 1002,9 hPa 0,0 l/m 15,8 km/h (3 Bft) SO 135 -3,9 C -5,1 C
18.03.2013 03:16 -0,4 C 77 % 1003,0 hPa 0,0 l/m 23,4 km/h (4 Bft) SO 135 -3,9 C -6,2 C
18.03.2013 03:21 -0,4 C 76 % 1003,0 hPa 0,0 l/m 16,6 km/h (3 Bft) SO 135 -4,1 C -5,2 C
18.03.2013 03:26 -0,3 C 75 % 1003,1 hPa 0,0 l/m 14,4 km/h (3 Bft) S 180 -4,2 C -4,7 C
18.03.2013 03:31 -0,3 C 75 % 1002,9 hPa 0,0 l/m 19,8 km/h (3 Bft) S-SO 157 -4,2 C -5,6 C
18.03.2013 03:36 -0,3 C 75 % 1002,9 hPa 0,0 l/m 15,5 km/h (3 Bft) SO 135 -4,2 C -4,9 C
18.03.2013 03:41 -0,4 C 75 % 1002,9 hPa 0,0 l/m 8,6 km/h (2 Bft) O-SO 112 -4,3 C -3,4 C
18.03.2013 03:46 -0,4 C 76 % 1002,9 hPa 0,0 l/m 11,2 km/h (2 Bft) O-NO 67 -4,1 C -4,1 C
18.03.2013 03:51 -0,6 C 78 % 1002,9 hPa 0,0 l/m 20,9 km/h (4 Bft) S-SO 157 -3,9 C -6,1 C
18.03.2013 03:56 -0,7 C 78 % 1002,7 hPa 0,0 l/m 25,9 km/h (4 Bft) SO 135 -4,0 C -6,9 C
18.03.2013 04:01 -0,7 C 79 % 1002,5 hPa 0,0 l/m 20,9 km/h (4 Bft) SO 135 -3,9 C -6,3 C
18.03.2013 04:06 -0,9 C 81 % 1002,5 hPa 0,0 l/m 25,2 km/h (4 Bft) S 180 -3,7 C -7,1 C
18.03.2013 04:11 -1,1 C 83 % 1002,3 hPa 0,0 l/m 9,0 km/h (2 Bft) SO 135 -3,6 C -4,3 C
18.03.2013 04:16 -1,2 C 83 % 1002,3 hPa 0,0 l/m 7,6 km/h (2 Bft) SO 135 -3,7 C -4,0 C
18.03.2013 04:21 -1,2 C 84 % 1002,4 hPa 0,0 l/m 12,2 km/h (2 Bft) O-SO 112 -3,5 C -5,3 C
18.03.2013 04:26 -1,2 C 84 % 1002,2 hPa 0,0 l/m 11,9 km/h (2 Bft) SO 135 -3,5 C -5,2 C
18.03.2013 04:31 -1,2 C 83 % 1002,1 hPa 0,0 l/m 14,8 km/h (3 Bft) SO 135 -3,7 C -5,9 C
18.03.2013 04:36 -1,1 C 82 % 1002,2 hPa 0,0 l/m 16,9 km/h (3 Bft) SO 135 -3,8 C -6,1 C
18.03.2013 04:41 -1,1 C 81 % 1002,1 hPa 0,0 l/m 12,2 km/h (2 Bft) S-SO 157 -3,9 C -5,2 C
18.03.2013 04:46 -0,9 C 79 % 1002,0 hPa 0,0 l/m 17,3 km/h (3 Bft) O-SO 112 -4,1 C -5,9 C
18.03.2013 04:51 -0,7 C 78 % 1001,8 hPa 0,0 l/m 9,7 km/h (2 Bft) SO 135 -4,0 C -4,1 C
18.03.2013 04:56 -0,7 C 76 % 1001,7 hPa 0,0 l/m 9,7 km/h (2 Bft) S-SO 157 -4,4 C -4,1 C
18.03.2013 05:01 -0,6 C 75 % 1001,6 hPa 0,0 l/m 12,6 km/h (3 Bft) SO 135 -4,5 C -4,7 C
18.03.2013 05:06 -0,5 C 74 % 1001,7 hPa 0,0 l/m 18,7 km/h (3 Bft) O 90 -4,5 C -5,7 C
18.03.2013 05:11 -0,4 C 73 % 1001,7 hPa 0,0 l/m 10,1 km/h (2 Bft) S-SO 157 -4,6 C -3,8 C
18.03.2013 05:16 -0,4 C 73 % 1001,6 hPa 0,0 l/m 23,8 km/h (4 Bft) SO 135 -4,6 C -6,3 C
18.03.2013 05:21 -0,4 C 73 % 1001,7 hPa 0,0 l/m 11,9 km/h (2 Bft) S-SO 157 -4,6 C -4,3 C
18.03.2013 05:26 -0,4 C 73 % 1001,6 hPa 0,0 l/m 13,7 km/h (3 Bft) SO 135 -4,6 C -4,7 C
18.03.2013 05:31 -0,4 C 72 % 1001,4 hPa 0,0 l/m 9,7 km/h (2 Bft) SO 135 -4,8 C -3,7 C
18.03.2013 05:36 -0,4 C 72 % 1001,4 hPa 0,0 l/m 17,3 km/h (3 Bft) SO 135 -4,8 C -5,3 C
18.03.2013 05:41 -0,4 C 72 % 1001,4 hPa 0,0 l/m 13,3 km/h (3 Bft) SO 135 -4,8 C -4,6 C
18.03.2013 05:46 -0,4 C 72 % 1001,2 hPa 0,0 l/m 14,0 km/h (3 Bft) SO 135 -4,8 C -4,7 C
18.03.2013 05:51 -0,4 C 72 % 1001,2 hPa 0,0 l/m 11,5 km/h (2 Bft) S-SO 157 -4,8 C -4,2 C
18.03.2013 05:56 -0,4 C 72 % 1001,1 hPa 0,0 l/m 11,5 km/h (2 Bft) SO 135 -4,8 C -4,2 C
18.03.2013 06:01 -0,4 C 72 % 1000,9 hPa 0,0 l/m 14,8 km/h (3 Bft) SO 135 -4,8 C -4,9 C
18.03.2013 06:06 -0,4 C 73 % 1001,3 hPa 0,0 l/m 25,2 km/h (4 Bft) S-SO 157 -4,6 C -6,4 C
18.03.2013 06:11 -0,4 C 73 % 1001,3 hPa 0,0 l/m 18,0 km/h (3 Bft) SO 135 -4,6 C -5,4 C
18.03.2013 06:16 -0,4 C 73 % 1001,3 hPa 0,0 l/m 19,1 km/h (3 Bft) SO 135 -4,6 C -5,6 C
18.03.2013 06:21 -0,4 C 73 % 1001,2 hPa 0,0 l/m 18,0 km/h (3 Bft) SO 135 -4,6 C -5,4 C
18.03.2013 06:26 -0,4 C 73 % 1001,3 hPa 0,0 l/m 15,1 km/h (3 Bft) S-SO 157 -4,6 C -4,9 C
18.03.2013 06:31 -0,4 C 72 % 1001,2 hPa 0,0 l/m 18,4 km/h (3 Bft) SO 135 -4,8 C -5,5 C
18.03.2013 06:36 -0,4 C 72 % 1001,2 hPa 0,0 l/m 15,5 km/h (3 Bft) SO 135 -4,8 C -5,0 C
18.03.2013 06:41 -0,4 C 72 % 1001,3 hPa 0,0 l/m 11,2 km/h (2 Bft) O 90 -4,8 C -4,1 C
18.03.2013 06:46 -0,4 C 72 % 1001,2 hPa 0,0 l/m 7,6 km/h (2 Bft) S-SO 157 -4,8 C -3,1 C
18.03.2013 06:51 -0,4 C 73 % 1001,2 hPa 0,0 l/m 11,5 km/h (2 Bft) O-SO 112 -4,6 C -4,2 C
18.03.2013 06:56 -0,4 C 73 % 1001,1 hPa 0,0 l/m 20,9 km/h (4 Bft) S-SO 157 -4,6 C -5,9 C
18.03.2013 07:01 -0,4 C 73 % 1001,2 hPa 0,0 l/m 14,4 km/h (3 Bft) SO 135 -4,6 C -4,8 C
18.03.2013 07:06 -0,4 C 73 % 1001,1 hPa 0,0 l/m 10,1 km/h (2 Bft) S-SO 157 -4,6 C -3,8 C
18.03.2013 07:11 -0,4 C 73 % 1001,1 hPa 0,0 l/m 25,6 km/h (4 Bft) S-SO 157 -4,6 C -6,5 C
18.03.2013 07:16 -0,5 C 74 % 1000,9 hPa 0,0 l/m 28,1 km/h (4 Bft) S 180 -4,5 C -6,9 C
18.03.2013 07:21 -0,6 C 75 % 1001,1 hPa 0,0 l/m 18,4 km/h (3 Bft) S-SO 157 -4,5 C -5,8 C
18.03.2013 07:26 -0,6 C 75 % 1001,2 hPa 0,0 l/m 18,4 km/h (3 Bft) SO 135 -4,5 C -5,8 C
18.03.2013 07:31 -0,6 C 77 % 1000,9 hPa 0,0 l/m 22,3 km/h (4 Bft) SO 135 -4,1 C -6,3 C
18.03.2013 07:36 -0,7 C 77 % 1001,0 hPa 0,0 l/m 25,2 km/h (4 Bft) SO 135 -4,2 C -6,8 C
18.03.2013 07:41 -0,7 C 78 % 1001,3 hPa 0,0 l/m 10,4 km/h (2 Bft) SO 135 -4,0 C -4,3 C
18.03.2013 07:46 -0,8 C 78 % 1001,1 hPa 0,0 l/m 13,7 km/h (3 Bft) SO 135 -4,1 C -5,1 C
18.03.2013 07:51 -0,8 C 79 % 1001,1 hPa 0,0 l/m 16,2 km/h (3 Bft) SO 135 -4,0 C -5,6 C
18.03.2013 07:56 -0,9 C 80 % 1001,2 hPa 0,0 l/m 7,6 km/h (2 Bft) SO 135 -3,9 C -3,7 C
18.03.2013 08:01 -0,9 C 81 % 1001,1 hPa 0,0 l/m 12,6 km/h (3 Bft) SO 135 -3,7 C -5,0 C
18.03.2013 08:06 -0,9 C 81 % 1001,1 hPa 0,0 l/m 10,4 km/h (2 Bft) O-SO 112 -3,7 C -4,5 C
18.03.2013 08:11 -1,0 C 81 % 1001,2 hPa 0,0 l/m 4,7 km/h (1 Bft) O 90 -3,8 C -2,6 C
18.03.2013 08:16 -1,0 C 82 % 1001,2 hPa 0,0 l/m 5,0 km/h (1 Bft) O-SO 112 -3,7 C -2,7 C
18.03.2013 08:21 -1,0 C 82 % 1001,2 hPa 0,0 l/m 18,7 km/h (3 Bft) SO 135 -3,7 C -6,3 C
18.03.2013 08:26 -0,9 C 82 % 1001,1 hPa 0,0 l/m 16,9 km/h (3 Bft) SO 135 -3,6 C -5,9 C
18.03.2013 08:31 -0,9 C 82 % 1001,1 hPa 0,0 l/m 14,8 km/h (3 Bft) O-SO 112 -3,6 C -5,5 C
18.03.2013 08:36 -0,8 C 82 % 1001,2 hPa 0,0 l/m 13,0 km/h (3 Bft) O-NO 67 -3,5 C -5,0 C
18.03.2013 08:41 -0,9 C 82 % 1001,2 hPa 0,0 l/m 7,2 km/h (2 Bft) S-SO 157 -3,6 C -3,5 C
18.03.2013 08:46 -0,8 C 82 % 1001,0 hPa 0,0 l/m 12,6 km/h (3 Bft) SO 135 -3,5 C -4,9 C
18.03.2013 08:51 -0,8 C 82 % 1001,1 hPa 0,0 l/m 7,2 km/h (2 Bft) SO 135 -3,5 C -3,4 C
18.03.2013 08:56 -0,8 C 83 % 1001,2 hPa 0,0 l/m 4,0 km/h (1 Bft) O-SO 112 -3,3 C -0,8 C
18.03.2013 09:01 -0,8 C 83 % 1001,1 hPa 0,0 l/m 22,7 km/h (4 Bft) SO 135 -3,3 C -6,6 C
18.03.2013 09:06 -0,7 C 83 % 1001,2 hPa 0,0 l/m 18,7 km/h (3 Bft) O 90 -3,2 C -5,9 C
18.03.2013 09:11 -0,7 C 83 % 1001,1 hPa 0,0 l/m 11,9 km/h (2 Bft) S-SO 157 -3,2 C -4,6 C
18.03.2013 09:16 -0,7 C 84 % 1001,1 hPa 0,0 l/m 2,5 km/h (1 Bft) O-NO 67 -3,1 C -0,7 C
18.03.2013 09:21 -0,6 C 84 % 1001,1 hPa 0,0 l/m 13,3 km/h (3 Bft) SO 135 -3,0 C -4,8 C
18.03.2013 09:26 -0,5 C 84 % 1001,1 hPa 0,0 l/m 5,8 km/h (2 Bft) SO 135 -2,9 C -2,5 C
18.03.2013 09:31 -0,4 C 84 % 1001,1 hPa 0,0 l/m 4,7 km/h (1 Bft) O-SO 112 -2,8 C -1,9 C
18.03.2013 09:36 -0,4 C 84 % 1000,9 hPa 0,0 l/m 6,5 km/h (2 Bft) O-SO 112 -2,8 C -2,7 C
18.03.2013 09:41 -0,4 C 84 % 1000,9 hPa 0,0 l/m 5,4 km/h (1 Bft) SO 135 -2,8 C -2,2 C
18.03.2013 09:46 -0,2 C 84 % 1000,8 hPa 0,0 l/m 7,2 km/h (2 Bft) O-NO 67 -2,6 C -2,7 C
18.03.2013 09:51 -0,2 C 84 % 1001,2 hPa 0,0 l/m 9,0 km/h (2 Bft) O-SO 112 -2,6 C -3,3 C
18.03.2013 09:56 -0,1 C 84 % 1001,2 hPa 0,0 l/m 16,9 km/h (3 Bft) O-SO 112 -2,5 C -4,9 C
18.03.2013 10:01 -0,1 C 84 % 1000,9 hPa 0,0 l/m 13,3 km/h (3 Bft) O 90 -2,5 C -4,2 C
18.03.2013 10:06 -0,1 C 84 % 1000,7 hPa 0,0 l/m 6,1 km/h (2 Bft) S-SO 157 -2,5 C -2,2 C
18.03.2013 10:11 -0,1 C 84 % 1000,6 hPa 0,0 l/m 11,5 km/h (2 Bft) O-SO 112 -2,5 C -3,8 C
18.03.2013 10:16 0,0 C 84 % 1000,6 hPa 0,0 l/m 13,3 km/h (3 Bft) SO 135 -2,4 C -4,1 C
18.03.2013 10:21 0,1 C 84 % 1000,7 hPa 0,0 l/m 9,0 km/h (2 Bft) S-SO 157 -2,3 C -2,9 C
18.03.2013 10:26 0,1 C 84 % 1000,6 hPa 0,0 l/m 5,4 km/h (1 Bft) O-SO 112 -2,3 C -1,7 C
18.03.2013 10:31 0,1 C 83 % 1000,5 hPa 0,0 l/m 10,4 km/h (2 Bft) S-SO 157 -2,4 C -3,3 C
18.03.2013 10:36 0,2 C 83 % 1000,7 hPa 0,0 l/m 14,0 km/h (3 Bft) SO 135 -2,3 C -4,0 C
18.03.2013 10:41 0,3 C 83 % 1000,7 hPa 0,0 l/m 10,1 km/h (2 Bft) O-NO 67 -2,2 C -3,0 C
18.03.2013 10:46 0,2 C 83 % 1000,5 hPa 0,0 l/m 15,8 km/h (3 Bft) SO 135 -2,3 C -4,3 C
18.03.2013 10:51 0,1 C 83 % 1000,6 hPa 0,0 l/m 8,6 km/h (2 Bft) SO 135 -2,4 C -2,8 C
18.03.2013 10:56 0,1 C 83 % 1000,5 hPa 0,0 l/m 11,2 km/h (2 Bft) SO 135 -2,4 C -3,5 C
18.03.2013 11:01 -0,1 C 83 % 1000,7 hPa 0,0 l/m 15,8 km/h (3 Bft) O-SO 112 -2,6 C -4,7 C
18.03.2013 11:06 -0,1 C 83 % 1000,4 hPa 0,0 l/m 14,4 km/h (3 Bft) SO 135 -2,6 C -4,4 C
18.03.2013 11:11 -0,1 C 83 % 1000,3 hPa 0,0 l/m 19,1 km/h (3 Bft) SO 135 -2,6 C -5,2 C
18.03.2013 11:16 -0,1 C 83 % 1000,5 hPa 0,0 l/m 15,1 km/h (3 Bft) O-NO 67 -2,6 C -4,6 C
18.03.2013 11:21 -0,1 C 83 % 1000,5 hPa 0,0 l/m 22,0 km/h (4 Bft) S-SO 157 -2,6 C -5,7 C
18.03.2013 11:26 -0,1 C 83 % 1000,2 hPa 0,0 l/m 18,0 km/h (3 Bft) SO 135 -2,6 C -5,1 C
18.03.2013 11:31 -0,1 C 83 % 1000,3 hPa 0,0 l/m 9,7 km/h (2 Bft) O 90 -2,6 C -3,4 C
18.03.2013 11:36 0,1 C 83 % 1000,3 hPa 0,0 l/m 9,4 km/h (2 Bft) S-SO 157 -2,4 C -3,0 C
18.03.2013 11:41 -0,1 C 83 % 1000,2 hPa 0,0 l/m 15,1 km/h (3 Bft) O-SO 112 -2,6 C -4,6 C
18.03.2013 11:46 0,0 C 83 % 1000,2 hPa 0,0 l/m 15,5 km/h (3 Bft) O-NO 67 -2,5 C -4,5 C
18.03.2013 11:51 0,1 C 83 % 1000,4 hPa 0,0 l/m 10,1 km/h (2 Bft) O-SO 112 -2,4 C -3,2 C
18.03.2013 11:56 0,1 C 83 % 1000,4 hPa 0,0 l/m 14,0 km/h (3 Bft) O-NO 67 -2,4 C -4,1 C
18.03.2013 12:01 0,1 C 83 % 1000,4 hPa 0,0 l/m 14,8 km/h (3 Bft) O-SO 112 -2,4 C -4,3 C
18.03.2013 12:06 0,1 C 83 % 1000,3 hPa 0,0 l/m 10,4 km/h (2 Bft) SO 135 -2,4 C -3,3 C
18.03.2013 12:11 0,1 C 83 % 1000,4 hPa 0,0 l/m 13,7 km/h (3 Bft) O-NO 67 -2,4 C -4,0 C
18.03.2013 12:16 0,1 C 83 % 1000,4 hPa 0,0 l/m 6,5 km/h (2 Bft) O-SO 112 -2,4 C -2,1 C
18.03.2013 12:21 0,1 C 83 % 1000,4 hPa 0,0 l/m 15,5 km/h (3 Bft) SO 135 -2,4 C -4,4 C
18.03.2013 12:26 0,1 C 83 % 1000,3 hPa 0,0 l/m 6,1 km/h (2 Bft) NO 45 -2,4 C -1,9 C
18.03.2013 12:31 0,1 C 83 % 1000,2 hPa 0,0 l/m 7,9 km/h (2 Bft) O-SO 112 -2,4 C -2,6 C
18.03.2013 12:36 0,1 C 83 % 1000,0 hPa 0,0 l/m 19,4 km/h (3 Bft) O-SO 112 -2,4 C -5,0 C
18.03.2013 12:41 0,1 C 83 % 999,9 hPa 0,0 l/m 8,6 km/h (2 Bft) SO 135 -2,4 C -2,8 C
18.03.2013 12:46 0,2 C 83 % 999,9 hPa 0,0 l/m 8,6 km/h (2 Bft) O-NO 67 -2,3 C -2,7 C
18.03.2013 12:51 0,4 C 83 % 1000,1 hPa 0,0 l/m 12,6 km/h (3 Bft) O-SO 112 -2,1 C -3,4 C
18.03.2013 12:56 0,4 C 83 % 999,9 hPa 0,0 l/m 8,6 km/h (2 Bft) O 90 -2,1 C -2,5 C
18.03.2013 13:01 0,4 C 83 % 999,8 hPa 0,0 l/m 15,1 km/h (3 Bft) O-NO 67 -2,1 C -3,9 C
18.03.2013 13:06 0,5 C 82 % 999,7 hPa 0,0 l/m 14,8 km/h (3 Bft) SO 135 -2,2 C -3,8 C
18.03.2013 13:11 0,6 C 82 % 999,7 hPa 0,0 l/m 11,9 km/h (2 Bft) O-SO 112 -2,1 C -3,1 C
18.03.2013 13:16 0,6 C 82 % 999,7 hPa 0,0 l/m 7,6 km/h (2 Bft) O-SO 112 -2,1 C -1,9 C
18.03.2013 13:21 0,6 C 82 % 999,8 hPa 0,0 l/m 18,4 km/h (3 Bft) O-NO 67 -2,1 C -4,2 C
18.03.2013 13:26 0,6 C 82 % 999,8 hPa 0,0 l/m 14,8 km/h (3 Bft) SO 135 -2,1 C -3,6 C
18.03.2013 13:31 0,6 C 82 % 999,7 hPa 0,0 l/m 10,1 km/h (2 Bft) O 90 -2,1 C -2,6 C
18.03.2013 13:36 0,5 C 82 % 999,7 hPa 0,0 l/m 13,3 km/h (3 Bft) O-SO 112 -2,2 C -3,5 C
18.03.2013 13:41 0,4 C 82 % 999,4 hPa 0,0 l/m 5,0 km/h (1 Bft) O-NO 67 -2,3 C -1,1 C
18.03.2013 13:46 0,3 C 82 % 999,4 hPa 0,0 l/m 19,8 km/h (3 Bft) SO 135 -2,4 C -4,8 C
18.03.2013 13:51 0,3 C 82 % 999,4 hPa 0,0 l/m 12,2 km/h (2 Bft) SO 135 -2,4 C -3,5 C
18.03.2013 13:56 0,4 C 82 % 999,4 hPa 0,0 l/m 19,8 km/h (3 Bft) SO 135 -2,3 C -4,7 C
18.03.2013 14:01 0,3 C 82 % 999,3 hPa 0,0 l/m 14,4 km/h (3 Bft) O 90 -2,4 C -3,9 C
18.03.2013 14:06 0,3 C 82 % 999,3 hPa 0,0 l/m 13,3 km/h (3 Bft) SO 135 -2,4 C -3,7 C
18.03.2013 14:11 0,4 C 81 % 999,3 hPa 0,0 l/m 7,2 km/h (2 Bft) O-NO 67 -2,5 C -2,0 C
18.03.2013 14:16 0,4 C 81 % 999,3 hPa 0,0 l/m 7,2 km/h (2 Bft) O-SO 112 -2,5 C -2,0 C
18.03.2013 14:21 0,5 C 81 % 999,2 hPa 0,0 l/m 8,3 km/h (2 Bft) O 90 -2,4 C -2,2 C
18.03.2013 14:26 0,5 C 80 % 999,1 hPa 0,0 l/m 12,2 km/h (2 Bft) SO 135 -2,5 C -3,2 C
18.03.2013 14:31 0,6 C 80 % 999,1 hPa 0,0 l/m 7,2 km/h (2 Bft) O-SO 112 -2,4 C -1,8 C
18.03.2013 14:36 0,8 C 80 % 999,3 hPa 0,0 l/m 6,5 km/h (2 Bft) O 90 -2,2 C -1,3 C
18.03.2013 14:41 0,9 C 80 % 999,3 hPa 0,0 l/m 4,7 km/h (1 Bft) O-SO 112 -2,2 C -0,4 C
18.03.2013 14:46 0,9 C 80 % 999,3 hPa 0,0 l/m 6,1 km/h (2 Bft) O-NO 67 -2,2 C -1,0 C
18.03.2013 14:51 1,1 C 79 % 999,3 hPa 0,0 l/m 6,1 km/h (2 Bft) NO 45 -2,1 C -0,8 C
18.03.2013 14:56 1,0 C 78 % 999,2 hPa 0,0 l/m 4,3 km/h (1 Bft) O-SO 112 -2,4 C 1,0 C
18.03.2013 15:01 1,1 C 78 % 999,0 hPa 0,0 l/m 4,7 km/h (1 Bft) NO 45 -2,3 C -0,2 C
18.03.2013 15:06 1,3 C 77 % 999,0 hPa 0,0 l/m 5,8 km/h (2 Bft) O 90 -2,3 C -0,5 C
18.03.2013 15:11 1,3 C 77 % 998,9 hPa 0,0 l/m 5,8 km/h (2 Bft) O-NO 67 -2,3 C -0,5 C
18.03.2013 15:16 1,3 C 76 % 998,7 hPa 0,0 l/m 4,0 km/h (1 Bft) O 90 -2,5 C 1,3 C
18.03.2013 15:21 1,4 C 75 % 998,8 hPa 0,0 l/m 0,0 km/h (0 Bft) O-NO 67 -2,5 C 1,4 C
18.03.2013 15:26 1,4 C 74 % 998,6 hPa 0,0 l/m 6,8 km/h (2 Bft) O-SO 112 -2,7 C -0,7 C
18.03.2013 15:31 1,4 C 73 % 998,5 hPa 0,0 l/m 8,3 km/h (2 Bft) NO 45 -2,9 C -1,2 C
18.03.2013 15:36 1,3 C 72 % 998,6 hPa 0,0 l/m 6,1 km/h (2 Bft) O-NO 67 -3,2 C -0,6 C
18.03.2013 15:41 1,3 C 71 % 998,7 hPa 0,0 l/m 7,2 km/h (2 Bft) O 90 -3,4 C -1,0 C
18.03.2013 15:46 1,3 C 71 % 998,7 hPa 0,0 l/m 10,8 km/h (2 Bft) O-NO 67 -3,4 C -2,0 C
18.03.2013 15:51 1,3 C 71 % 998,8 hPa 0,0 l/m 6,5 km/h (2 Bft) O-NO 67 -3,4 C -0,7 C
18.03.2013 15:56 1,3 C 71 % 998,6 hPa 0,0 l/m 6,1 km/h (2 Bft) O 90 -3,4 C -0,6 C
18.03.2013 16:01 1,3 C 70 % 998,6 hPa 0,0 l/m 7,2 km/h (2 Bft) O-NO 67 -3,6 C -1,0 C
18.03.2013 16:06 1,2 C 70 % 998,6 hPa 0,0 l/m 8,6 km/h (2 Bft) O 90 -3,7 C -1,5 C
18.03.2013 16:11 1,1 C 70 % 998,6 hPa 0,0 l/m 9,7 km/h (2 Bft) O-NO 67 -3,7 C -1,9 C
18.03.2013 16:16 1,1 C 71 % 998,6 hPa 0,0 l/m 6,5 km/h (2 Bft) O-NO 67 -3,6 C -0,9 C
18.03.2013 16:21 1,1 C 71 % 998,6 hPa 0,0 l/m 6,1 km/h (2 Bft) O 90 -3,6 C -0,8 C
18.03.2013 16:26 1,0 C 71 % 998,6 hPa 0,0 l/m 3,6 km/h (1 Bft) O 90 -3,7 C 1,0 C
18.03.2013 16:31 0,9 C 72 % 998,5 hPa 0,0 l/m 6,1 km/h (2 Bft) O-NO 67 -3,6 C -1,0 C
18.03.2013 16:36 0,9 C 72 % 998,5 hPa 0,0 l/m 5,0 km/h (1 Bft) O 90 -3,6 C -0,6 C
18.03.2013 16:41 0,9 C 73 % 998,4 hPa 0,0 l/m 8,3 km/h (2 Bft) O 90 -3,4 C -1,8 C
18.03.2013 16:46 0,9 C 73 % 998,4 hPa 0,0 l/m 20,2 km/h (4 Bft) O-SO 112 -3,4 C -4,1 C
18.03.2013 16:51 0,8 C 73 % 998,5 hPa 0,0 l/m 16,6 km/h (3 Bft) O-SO 112 -3,5 C -3,7 C
18.03.2013 16:56 0,8 C 74 % 998,5 hPa 0,0 l/m 7,9 km/h (2 Bft) O 90 -3,3 C -1,8 C
18.03.2013 17:01 0,6 C 74 % 998,5 hPa 0,0 l/m 23,0 km/h (4 Bft) O-SO 112 -3,5 C -4,9 C
18.03.2013 17:06 0,6 C 75 % 998,4 hPa 0,0 l/m 5,8 km/h (2 Bft) O 90 -3,3 C -1,3 C
18.03.2013 17:11 0,5 C 75 % 998,2 hPa 0,0 l/m 18,0 km/h (3 Bft) O-NO 67 -3,4 C -4,3 C
18.03.2013 17:16 0,4 C 76 % 998,4 hPa 0,0 l/m 16,2 km/h (3 Bft) SO 135 -3,3 C -4,1 C
18.03.2013 17:21 0,4 C 77 % 998,6 hPa 0,0 l/m 19,1 km/h (3 Bft) O 90 -3,1 C -4,6 C
18.03.2013 17:26 0,3 C 78 % 998,6 hPa 0,0 l/m 11,2 km/h (2 Bft) O-SO 112 -3,1 C -3,3 C
18.03.2013 17:31 0,1 C 80 % 998,6 hPa 0,0 l/m 9,4 km/h (2 Bft) O-SO 112 -2,9 C -3,0 C
18.03.2013 17:36 -0,1 C 81 % 998,7 hPa 0,0 l/m 12,6 km/h (3 Bft) O-SO 112 -3,0 C -4,1 C
18.03.2013 17:41 -0,2 C 82 % 998,7 hPa 0,0 l/m 14,8 km/h (3 Bft) O-NO 67 -2,9 C -4,6 C
18.03.2013 17:46 -0,3 C 83 % 998,7 hPa 0,0 l/m 15,8 km/h (3 Bft) O-NO 67 -2,8 C -4,9 C
18.03.2013 17:51 -0,4 C 84 % 998,6 hPa 0,0 l/m 8,3 km/h (2 Bft) O 90 -2,8 C -3,3 C
18.03.2013 17:56 -0,5 C 85 % 998,7 hPa 0,0 l/m 10,8 km/h (2 Bft) O-NO 67 -2,7 C -4,1 C
18.03.2013 18:01 -0,6 C 85 % 998,6 hPa 0,0 l/m 7,2 km/h (2 Bft) NO 45 -2,8 C -3,2 C
18.03.2013 18:06 -0,6 C 86 % 998,7 hPa 0,0 l/m 6,1 km/h (2 Bft) O-NO 67 -2,6 C -2,8 C
18.03.2013 18:11 -0,7 C 86 % 998,6 hPa 0,0 l/m 4,7 km/h (1 Bft) N-NO 22 -2,7 C -2,2 C
18.03.2013 18:16 -0,8 C 87 % 998,6 hPa 0,0 l/m 14,0 km/h (3 Bft) O-NO 67 -2,7 C -5,2 C
18.03.2013 18:21 -0,8 C 87 % 998,7 hPa 0,0 l/m 13,3 km/h (3 Bft) O 90 -2,7 C -5,1 C
18.03.2013 18:26 -0,9 C 87 % 998,7 hPa 0,0 l/m 9,7 km/h (2 Bft) O-SO 112 -2,8 C -4,3 C
18.03.2013 18:31 -0,9 C 87 % 998,5 hPa 0,0 l/m 7,2 km/h (2 Bft) O 90 -2,8 C -3,5 C
18.03.2013 18:36 -0,9 C 88 % 998,6 hPa 0,0 l/m 11,9 km/h (2 Bft) O 90 -2,6 C -4,9 C
18.03.2013 18:41 -0,9 C 88 % 998,7 hPa 0,0 l/m 7,6 km/h (2 Bft) O-SO 112 -2,6 C -3,7 C
18.03.2013 18:46 -1,0 C 88 % 998,6 hPa 0,0 l/m 18,0 km/h (3 Bft) O-NO 67 -2,7 C -6,2 C
18.03.2013 18:51 -1,0 C 88 % 998,6 hPa 0,0 l/m 9,4 km/h (2 Bft) O 90 -2,7 C -4,3 C
18.03.2013 18:56 -1,0 C 88 % 998,5 hPa 0,0 l/m 8,3 km/h (2 Bft) O-SO 112 -2,7 C -4,0 C
18.03.2013 19:01 -1,0 C 88 % 998,7 hPa 0,0 l/m 6,1 km/h (2 Bft) O 90 -2,7 C -3,2 C
18.03.2013 19:06 -1,0 C 89 % 998,6 hPa 0,0 l/m 4,3 km/h (1 Bft) S-SO 157 -2,6 C -1,0 C
18.03.2013 19:11 -1,1 C 89 % 998,6 hPa 0,0 l/m 7,9 km/h (2 Bft) O-SO 112 -2,7 C -4,0 C
18.03.2013 19:16 -1,1 C 89 % 998,4 hPa 0,0 l/m 6,1 km/h (2 Bft) O 90 -2,7 C -3,3 C
18.03.2013 19:21 -1,1 C 89 % 998,6 hPa 0,0 l/m 9,0 km/h (2 Bft) NO 45 -2,7 C -4,3 C
18.03.2013 19:26 -1,1 C 89 % 998,5 hPa 0,0 l/m 5,4 km/h (1 Bft) O-NO 67 -2,7 C -3,0 C
18.03.2013 19:31 -1,1 C 89 % 998,5 hPa 0,0 l/m 5,0 km/h (1 Bft) O-SO 112 -2,7 C -2,8 C
18.03.2013 19:36 -1,1 C 89 % 998,6 hPa 0,0 l/m 4,0 km/h (1 Bft) NO 45 -2,7 C -1,1 C
18.03.2013 19:41 -1,1 C 89 % 998,5 hPa 0,0 l/m 8,6 km/h (2 Bft) SO 135 -2,7 C -4,2 C
18.03.2013 19:46 -1,1 C 89 % 998,5 hPa 0,0 l/m 4,0 km/h (1 Bft) NO 45 -2,7 C -1,1 C
18.03.2013 19:51 -1,2 C 89 % 998,3 hPa 0,0 l/m 7,6 km/h (2 Bft) NO 45 -2,8 C -4,0 C
18.03.2013 19:56 -1,2 C 89 % 998,1 hPa 0,0 l/m 4,0 km/h (1 Bft) O-NO 67 -2,8 C -1,2 C
18.03.2013 20:01 -1,2 C 89 % 998,1 hPa 0,0 l/m 9,4 km/h (2 Bft) O-NO 67 -2,8 C -4,6 C
18.03.2013 20:06 -1,3 C 89 % 998,1 hPa 0,0 l/m 9,4 km/h (2 Bft) N-NO 22 -2,9 C -4,7 C
18.03.2013 20:11 -1,3 C 89 % 998,1 hPa 0,0 l/m 6,1 km/h (2 Bft) NO 45 -2,9 C -3,6 C
18.03.2013 20:16 -1,3 C 89 % 998,2 hPa 0,0 l/m 6,1 km/h (2 Bft) O 90 -2,9 C -3,6 C
18.03.2013 20:21 -1,3 C 89 % 998,1 hPa 0,0 l/m 12,2 km/h (2 Bft) NO 45 -2,9 C -5,4 C
18.03.2013 20:26 -1,4 C 89 % 998,2 hPa 0,0 l/m 9,7 km/h (2 Bft) N-NO 22 -3,0 C -4,9 C
18.03.2013 20:31 -1,4 C 89 % 998,3 hPa 0,0 l/m 7,9 km/h (2 Bft) O-NO 67 -3,0 C -4,3 C
18.03.2013 20:36 -1,4 C 89 % 998,0 hPa 0,0 l/m 9,4 km/h (2 Bft) NO 45 -3,0 C -4,8 C
18.03.2013 20:41 -1,5 C 89 % 998,0 hPa 0,0 l/m 6,5 km/h (2 Bft) O-NO 67 -3,1 C -4,0 C
18.03.2013 20:46 -1,5 C 89 % 998,0 hPa 0,0 l/m 4,3 km/h (1 Bft) NO 45 -3,1 C -1,5 C
18.03.2013 20:51 -1,5 C 89 % 997,9 hPa 0,0 l/m 5,8 km/h (2 Bft) NO 45 -3,1 C -3,7 C
18.03.2013 20:56 -1,5 C 89 % 997,9 hPa 0,0 l/m 4,0 km/h (1 Bft) NO 45 -3,1 C -1,5 C
18.03.2013 21:01 -1,5 C 89 % 997,8 hPa 0,0 l/m 8,6 km/h (2 Bft) NO 45 -3,1 C -4,7 C
18.03.2013 21:06 -1,5 C 89 % 997,8 hPa 0,0 l/m 11,9 km/h (2 Bft) O-NO 67 -3,1 C -5,6 C
18.03.2013 21:11 -1,6 C 89 % 997,8 hPa 0,0 l/m 7,9 km/h (2 Bft) NO 45 -3,2 C -4,6 C
18.03.2013 21:16 -1,6 C 89 % 997,9 hPa 0,0 l/m 4,0 km/h (1 Bft) NO 45 -3,2 C -1,6 C
18.03.2013 21:21 -1,6 C 89 % 997,9 hPa 0,0 l/m 5,8 km/h (2 Bft) O-NO 67 -3,2 C -3,8 C
18.03.2013 21:26 -1,6 C 89 % 997,6 hPa 0,0 l/m 12,6 km/h (3 Bft) O-NO 67 -3,2 C -5,9 C
18.03.2013 21:31 -1,6 C 89 % 997,5 hPa 0,0 l/m 6,8 km/h (2 Bft) NO 45 -3,2 C -4,2 C
18.03.2013 21:36 -1,6 C 89 % 997,6 hPa 0,0 l/m 5,4 km/h (1 Bft) O-NO 67 -3,2 C -3,6 C
18.03.2013 21:41 -1,6 C 89 % 997,5 hPa 0,0 l/m 7,2 km/h (2 Bft) O 90 -3,2 C -4,3 C
18.03.2013 21:46 -1,6 C 89 % 997,5 hPa 0,0 l/m 5,4 km/h (1 Bft) O-NO 67 -3,2 C -3,6 C
18.03.2013 21:51 -1,6 C 89 % 997,4 hPa 0,0 l/m 6,1 km/h (2 Bft) NO 45 -3,2 C -3,9 C
18.03.2013 21:56 -1,6 C 89 % 997,3 hPa 0,0 l/m 13,0 km/h (3 Bft) O-NO 67 -3,2 C -6,0 C
18.03.2013 22:01 -1,6 C 89 % 997,4 hPa 0,0 l/m 8,3 km/h (2 Bft) O-NO 67 -3,2 C -4,7 C
18.03.2013 22:06 -1,6 C 89 % 997,2 hPa 0,0 l/m 6,1 km/h (2 Bft) O-NO 67 -3,2 C -3,9 C
18.03.2013 22:11 -1,6 C 89 % 997,2 hPa 0,0 l/m 11,2 km/h (2 Bft) O-NO 67 -3,2 C -5,5 C
18.03.2013 22:16 -1,6 C 89 % 997,3 hPa 0,0 l/m 5,0 km/h (1 Bft) NO 45 -3,2 C -3,4 C
18.03.2013 22:21 -1,6 C 89 % 997,2 hPa 0,0 l/m 6,8 km/h (2 Bft) O-NO 67 -3,2 C -4,2 C
18.03.2013 22:26 -1,6 C 89 % 997,1 hPa 0,0 l/m 4,0 km/h (1 Bft) O-NO 67 -3,2 C -1,6 C
18.03.2013 22:31 -1,6 C 89 % 997,2 hPa 0,0 l/m 6,5 km/h (2 Bft) NO 45 -3,2 C -4,1 C
18.03.2013 22:36 -1,6 C 89 % 997,0 hPa 0,0 l/m 7,2 km/h (2 Bft) NO 45 -3,2 C -4,3 C
18.03.2013 22:41 -1,6 C 89 % 997,1 hPa 0,0 l/m 10,4 km/h (2 Bft) O-SO 112 -3,2 C -5,3 C
18.03.2013 22:46 -1,6 C 89 % 997,0 hPa 0,0 l/m 13,0 km/h (3 Bft) O-NO 67 -3,2 C -6,0 C
18.03.2013 22:51 -1,6 C 89 % 997,0 hPa 0,0 l/m 11,2 km/h (2 Bft) NO 45 -3,2 C -5,5 C
18.03.2013 22:56 -1,6 C 89 % 996,9 hPa 0,0 l/m 7,6 km/h (2 Bft) NO 45 -3,2 C -4,5 C
18.03.2013 23:01 -1,6 C 89 % 996,9 hPa 0,0 l/m 7,2 km/h (2 Bft) NO 45 -3,2 C -4,3 C
18.03.2013 23:06 -1,6 C 89 % 996,9 hPa 0,0 l/m 10,1 km/h (2 Bft) NO 45 -3,2 C -5,3 C
18.03.2013 23:11 -1,6 C 89 % 996,9 hPa 0,0 l/m 13,7 km/h (3 Bft) NO 45 -3,2 C -6,1 C
18.03.2013 23:16 -1,6 C 89 % 996,9 hPa 0,0 l/m 6,8 km/h (2 Bft) NO 45 -3,2 C -4,2 C
18.03.2013 23:21 -1,6 C 89 % 996,8 hPa 0,0 l/m 8,3 km/h (2 Bft) O-NO 67 -3,2 C -4,7 C
18.03.2013 23:26 -1,6 C 89 % 997,0 hPa 0,0 l/m 5,0 km/h (1 Bft) NO 45 -3,2 C -3,4 C
18.03.2013 23:31 -1,6 C 89 % 996,9 hPa 0,0 l/m 9,4 km/h (2 Bft) O-NO 67 -3,2 C -5,1 C
18.03.2013 23:36 -1,6 C 89 % 996,8 hPa 0,0 l/m 7,9 km/h (2 Bft) O-NO 67 -3,2 C -4,6 C
18.03.2013 23:41 -1,6 C 89 % 996,8 hPa 0,0 l/m 5,0 km/h (1 Bft) NO 45 -3,2 C -3,4 C
18.03.2013 23:46 -1,6 C 89 % 996,7 hPa 0,0 l/m 7,2 km/h (2 Bft) N-NO 22 -3,2 C -4,3 C
18.03.2013 23:51 -1,6 C 89 % 996,5 hPa 0,0 l/m 4,0 km/h (1 Bft) NO 45 -3,2 C -1,6 C
18.03.2013 23:56 -1,6 C 89 % 996,7 hPa 0,0 l/m 2,9 km/h (1 Bft) O-NO 67 -3,2 C -1,6 C
_ Min-Zeit 21:11 00:11 23:51 - 15:21 - - 00:11 04:06
Minimum _ -1,6 C 67 % 996,5 hPa - 0,0 km/h (0 Bft) - - -5,5 C -7,1 C
_ Max-Zeit 15:21 19:06 00:01 00:01 01:51 - - 13:11 15:21
Maximum _ 1,4 C 89 % 1004,4 hPa 0,0 l/m 29,5 km/h
SO (5 Bft)
- - -2,1 C 1,4 C
Durchschnitt _ -0,4 C 81 % 1000,2 hPa #0,0 l/m 11,7 km/h (2 Bft) SO - -3,3 C -3,9 C
(c) by David Heller